sensor_id;sensor_type;location;lat;lon;timestamp;P1;durP1;ratioP1;P2;durP2;ratioP2
10811;SDS011;5458;51.496;7.334;2022-09-20T00:00:25;10.18;;;3.75;;
10811;SDS011;5458;51.496;7.334;2022-09-20T00:02:51;11.43;;;4.07;;
10811;SDS011;5458;51.496;7.334;2022-09-20T00:05:17;8.25;;;3.33;;
10811;SDS011;5458;51.496;7.334;2022-09-20T00:07:43;5.93;;;3.38;;
10811;SDS011;5458;51.496;7.334;2022-09-20T00:10:09;8.82;;;4.18;;
10811;SDS011;5458;51.496;7.334;2022-09-20T00:12:35;8.38;;;3.25;;
10811;SDS011;5458;51.496;7.334;2022-09-20T00:15:01;9.13;;;3.45;;
10811;SDS011;5458;51.496;7.334;2022-09-20T00:17:27;10.80;;;3.35;;
10811;SDS011;5458;51.496;7.334;2022-09-20T00:19:53;11.43;;;3.72;;
10811;SDS011;5458;51.496;7.334;2022-09-20T00:22:18;6.25;;;3.63;;
10811;SDS011;5458;51.496;7.334;2022-09-20T00:24:44;12.30;;;4.05;;
10811;SDS011;5458;51.496;7.334;2022-09-20T00:27:09;6.35;;;3.60;;
10811;SDS011;5458;51.496;7.334;2022-09-20T00:29:35;10.65;;;3.22;;
10811;SDS011;5458;51.496;7.334;2022-09-20T00:32:01;8.13;;;3.45;;
10811;SDS011;5458;51.496;7.334;2022-09-20T00:34:27;8.15;;;3.20;;
10811;SDS011;5458;51.496;7.334;2022-09-20T00:37:11;8.57;;;4.53;;
10811;SDS011;5458;51.496;7.334;2022-09-20T00:39:36;6.95;;;3.58;;
10811;SDS011;5458;51.496;7.334;2022-09-20T00:42:02;13.60;;;3.80;;
10811;SDS011;5458;51.496;7.334;2022-09-20T00:47:22;7.63;;;3.47;;
10811;SDS011;5458;51.496;7.334;2022-09-20T00:53:06;7.22;;;3.85;;
10811;SDS011;5458;51.496;7.334;2022-09-20T00:55:38;7.78;;;3.80;;
10811;SDS011;5458;51.496;7.334;2022-09-20T00:58:07;9.35;;;3.40;;
10811;SDS011;5458;51.496;7.334;2022-09-20T01:00:33;6.22;;;3.33;;
10811;SDS011;5458;51.496;7.334;2022-09-20T01:03:01;6.38;;;3.45;;
10811;SDS011;5458;51.496;7.334;2022-09-20T01:05:30;9.05;;;3.78;;
10811;SDS011;5458;51.496;7.334;2022-09-20T01:07:56;6.20;;;3.25;;
10811;SDS011;5458;51.496;7.334;2022-09-20T01:10:22;8.07;;;3.63;;
10811;SDS011;5458;51.496;7.334;2022-09-20T01:12:47;10.00;;;3.63;;
10811;SDS011;5458;51.496;7.334;2022-09-20T01:15:15;9.95;;;4.35;;
10811;SDS011;5458;51.496;7.334;2022-09-20T01:17:43;9.02;;;3.83;;
10811;SDS011;5458;51.496;7.334;2022-09-20T01:23:11;12.32;;;4.90;;
10811;SDS011;5458;51.496;7.334;2022-09-20T01:28:23;9.55;;;4.32;;
10811;SDS011;5458;51.496;7.334;2022-09-20T01:30:59;9.00;;;4.05;;
10811;SDS011;5458;51.496;7.334;2022-09-20T01:36:02;8.88;;;3.90;;
10811;SDS011;5458;51.496;7.334;2022-09-20T01:41:29;9.00;;;4.05;;
10811;SDS011;5458;51.496;7.334;2022-09-20T01:46:49;10.05;;;4.30;;
10811;SDS011;5458;51.496;7.334;2022-09-20T01:49:28;9.95;;;4.80;;
10811;SDS011;5458;51.496;7.334;2022-09-20T02:02:29;11.65;;;4.53;;
10811;SDS011;5458;51.496;7.334;2022-09-20T02:13:29;9.52;;;4.63;;
10811;SDS011;5458;51.496;7.334;2022-09-20T02:39:36;7.10;;;5.00;;
10811;SDS011;5458;51.496;7.334;2022-09-20T02:42:17;12.90;;;5.13;;
10811;SDS011;5458;51.496;7.334;2022-09-20T02:47:46;8.80;;;4.55;;
10811;SDS011;5458;51.496;7.334;2022-09-20T02:50:16;9.73;;;5.10;;
10811;SDS011;5458;51.496;7.334;2022-09-20T03:01:46;12.18;;;5.28;;
10811;SDS011;5458;51.496;7.334;2022-09-20T03:07:31;14.65;;;7.13;;
10811;SDS011;5458;51.496;7.334;2022-09-20T03:10:32;11.35;;;6.60;;
10811;SDS011;5458;51.496;7.334;2022-09-20T03:13:21;8.95;;;5.85;;
10811;SDS011;5458;51.496;7.334;2022-09-20T03:18:17;11.98;;;5.13;;
10811;SDS011;5458;51.496;7.334;2022-09-20T03:24:03;10.18;;;5.97;;
10811;SDS011;5458;51.496;7.334;2022-09-20T03:26:41;11.10;;;5.65;;
10811;SDS011;5458;51.496;7.334;2022-09-20T03:34:59;9.13;;;6.05;;
10811;SDS011;5458;51.496;7.334;2022-09-20T03:43:31;13.77;;;6.85;;
10811;SDS011;5458;51.496;7.334;2022-09-20T03:46:02;9.52;;;5.68;;
10811;SDS011;5458;51.496;7.334;2022-09-20T03:51:27;13.93;;;6.55;;
10811;SDS011;5458;51.496;7.334;2022-09-20T04:03:02;10.95;;;5.50;;
10811;SDS011;5458;51.496;7.334;2022-09-20T04:11:13;10.70;;;5.75;;
10811;SDS011;5458;51.496;7.334;2022-09-20T04:14:03;8.27;;;6.28;;
10811;SDS011;5458;51.496;7.334;2022-09-20T04:22:06;12.02;;;5.57;;
10811;SDS011;5458;51.496;7.334;2022-09-20T04:29:51;11.10;;;6.38;;
10811;SDS011;5458;51.496;7.334;2022-09-20T04:32:24;13.88;;;6.88;;
10811;SDS011;5458;51.496;7.334;2022-09-20T04:34:59;10.30;;;5.82;;
10811;SDS011;5458;51.496;7.334;2022-09-20T04:38:07;13.68;;;7.68;;
10811;SDS011;5458;51.496;7.334;2022-09-20T04:51:31;12.65;;;6.55;;
10811;SDS011;5458;51.496;7.334;2022-09-20T05:00:04;14.35;;;6.65;;
10811;SDS011;5458;51.496;7.334;2022-09-20T05:29:50;12.32;;;6.57;;
10811;SDS011;5458;51.496;7.334;2022-09-20T05:43:29;13.23;;;8.20;;
10811;SDS011;5458;51.496;7.334;2022-09-20T05:46:01;14.50;;;7.45;;
10811;SDS011;5458;51.496;7.334;2022-09-20T05:48:54;11.82;;;7.22;;
10811;SDS011;5458;51.496;7.334;2022-09-20T05:51:29;13.98;;;7.35;;
10811;SDS011;5458;51.496;7.334;2022-09-20T05:54:16;11.05;;;7.00;;
10811;SDS011;5458;51.496;7.334;2022-09-20T06:00:08;15.15;;;7.15;;
10811;SDS011;5458;51.496;7.334;2022-09-20T06:06:20;14.40;;;8.20;;
10811;SDS011;5458;51.496;7.334;2022-09-20T06:14:28;18.55;;;8.18;;
10811;SDS011;5458;51.496;7.334;2022-09-20T06:22:42;13.50;;;7.80;;
10811;SDS011;5458;51.496;7.334;2022-09-20T06:27:50;14.20;;;7.30;;
10811;SDS011;5458;51.496;7.334;2022-09-20T06:30:34;13.20;;;7.90;;
10811;SDS011;5458;51.496;7.334;2022-09-20T06:35:35;15.73;;;8.15;;
10811;SDS011;5458;51.496;7.334;2022-09-20T06:41:13;10.75;;;7.70;;
10811;SDS011;5458;51.496;7.334;2022-09-20T06:43:52;13.88;;;7.55;;
10811;SDS011;5458;51.496;7.334;2022-09-20T06:46:28;15.52;;;7.38;;
10811;SDS011;5458;51.496;7.334;2022-09-20T06:48:55;13.88;;;7.85;;
10811;SDS011;5458;51.496;7.334;2022-09-20T06:51:22;16.05;;;7.78;;
10811;SDS011;5458;51.496;7.334;2022-09-20T06:53:49;15.00;;;7.53;;
10811;SDS011;5458;51.496;7.334;2022-09-20T06:56:21;12.30;;;7.00;;
10811;SDS011;5458;51.496;7.334;2022-09-20T06:58:49;8.38;;;5.93;;
10811;SDS011;5458;51.496;7.334;2022-09-20T07:01:16;12.80;;;6.75;;
10811;SDS011;5458;51.496;7.334;2022-09-20T07:03:42;15.52;;;7.25;;
10811;SDS011;5458;51.496;7.334;2022-09-20T07:06:08;10.40;;;6.68;;
10811;SDS011;5458;51.496;7.334;2022-09-20T07:08:34;10.90;;;6.75;;
10811;SDS011;5458;51.496;7.334;2022-09-20T07:11:04;12.80;;;6.35;;
10811;SDS011;5458;51.496;7.334;2022-09-20T07:13:30;9.63;;;5.68;;
10811;SDS011;5458;51.496;7.334;2022-09-20T07:16:03;9.57;;;5.00;;
10811;SDS011;5458;51.496;7.334;2022-09-20T07:18:30;11.40;;;5.45;;
10811;SDS011;5458;51.496;7.334;2022-09-20T07:20:57;14.07;;;5.15;;
10811;SDS011;5458;51.496;7.334;2022-09-20T07:23:26;8.65;;;4.68;;
10811;SDS011;5458;51.496;7.334;2022-09-20T07:25:54;9.88;;;5.03;;
10811;SDS011;5458;51.496;7.334;2022-09-20T07:28:22;8.20;;;4.50;;
10811;SDS011;5458;51.496;7.334;2022-09-20T07:30:48;10.63;;;5.43;;
10811;SDS011;5458;51.496;7.334;2022-09-20T07:33:14;10.00;;;5.13;;
10811;SDS011;5458;51.496;7.334;2022-09-20T07:35:46;7.50;;;4.78;;
10811;SDS011;5458;51.496;7.334;2022-09-20T07:38:12;5.57;;;4.57;;
10811;SDS011;5458;51.496;7.334;2022-09-20T07:40:39;9.65;;;4.22;;
10811;SDS011;5458;51.496;7.334;2022-09-20T07:43:05;7.97;;;4.10;;
10811;SDS011;5458;51.496;7.334;2022-09-20T07:45:30;6.07;;;3.92;;
10811;SDS011;5458;51.496;7.334;2022-09-20T07:47:59;3.78;;;3.20;;
10811;SDS011;5458;51.496;7.334;2022-09-20T07:50:29;7.03;;;3.88;;
10811;SDS011;5458;51.496;7.334;2022-09-20T07:52:55;8.82;;;3.95;;
10811;SDS011;5458;51.496;7.334;2022-09-20T07:55:21;8.05;;;4.22;;
10811;SDS011;5458;51.496;7.334;2022-09-20T07:57:47;10.43;;;4.47;;
10811;SDS011;5458;51.496;7.334;2022-09-20T08:00:13;9.07;;;3.67;;
10811;SDS011;5458;51.496;7.334;2022-09-20T08:02:39;7.60;;;4.15;;
10811;SDS011;5458;51.496;7.334;2022-09-20T08:05:04;10.75;;;4.07;;
10811;SDS011;5458;51.496;7.334;2022-09-20T08:07:30;10.85;;;4.63;;
10811;SDS011;5458;51.496;7.334;2022-09-20T08:09:56;7.38;;;4.20;;
10811;SDS011;5458;51.496;7.334;2022-09-20T08:12:21;9.90;;;4.45;;
10811;SDS011;5458;51.496;7.334;2022-09-20T08:14:47;8.00;;;4.43;;
10811;SDS011;5458;51.496;7.334;2022-09-20T08:17:13;6.10;;;4.35;;
10811;SDS011;5458;51.496;7.334;2022-09-20T08:19:40;9.32;;;4.25;;
10811;SDS011;5458;51.496;7.334;2022-09-20T08:22:07;13.40;;;4.43;;
10811;SDS011;5458;51.496;7.334;2022-09-20T08:24:34;11.43;;;3.55;;
10811;SDS011;5458;51.496;7.334;2022-09-20T08:27:00;8.07;;;3.88;;
10811;SDS011;5458;51.496;7.334;2022-09-20T08:29:26;8.05;;;3.83;;
10811;SDS011;5458;51.496;7.334;2022-09-20T08:31:52;15.40;;;6.05;;
10811;SDS011;5458;51.496;7.334;2022-09-20T08:34:19;5.68;;;4.25;;
10811;SDS011;5458;51.496;7.334;2022-09-20T08:36:45;8.05;;;4.38;;
10811;SDS011;5458;51.496;7.334;2022-09-20T08:39:11;7.63;;;4.32;;
10811;SDS011;5458;51.496;7.334;2022-09-20T08:46:49;8.50;;;4.15;;
10811;SDS011;5458;51.496;7.334;2022-09-20T08:49:36;7.93;;;4.63;;
10811;SDS011;5458;51.496;7.334;2022-09-20T08:52:02;10.07;;;4.80;;
10811;SDS011;5458;51.496;7.334;2022-09-20T08:54:30;10.73;;;5.13;;
10811;SDS011;5458;51.496;7.334;2022-09-20T08:56:57;12.27;;;5.28;;
10811;SDS011;5458;51.496;7.334;2022-09-20T08:59:29;8.20;;;5.45;;
10811;SDS011;5458;51.496;7.334;2022-09-20T09:01:56;10.55;;;4.72;;
10811;SDS011;5458;51.496;7.334;2022-09-20T09:04:24;8.98;;;4.95;;
10811;SDS011;5458;51.496;7.334;2022-09-20T09:06:58;9.02;;;4.25;;
10811;SDS011;5458;51.496;7.334;2022-09-20T09:09:24;8.73;;;3.95;;
10811;SDS011;5458;51.496;7.334;2022-09-20T09:11:51;12.30;;;4.72;;
10811;SDS011;5458;51.496;7.334;2022-09-20T09:17:11;7.97;;;5.03;;
10811;SDS011;5458;51.496;7.334;2022-09-20T09:25:05;10.50;;;3.97;;
10811;SDS011;5458;51.496;7.334;2022-09-20T09:30:47;8.65;;;3.30;;
10811;SDS011;5458;51.496;7.334;2022-09-20T09:38:20;7.50;;;3.13;;
10811;SDS011;5458;51.496;7.334;2022-09-20T09:40:54;6.60;;;3.28;;
10811;SDS011;5458;51.496;7.334;2022-09-20T09:43:23;3.10;;;2.80;;
10811;SDS011;5458;51.496;7.334;2022-09-20T09:45:53;6.93;;;2.72;;
10811;SDS011;5458;51.496;7.334;2022-09-20T09:48:24;6.70;;;3.20;;
10811;SDS011;5458;51.496;7.334;2022-09-20T09:53:47;6.65;;;2.28;;
10811;SDS011;5458;51.496;7.334;2022-09-20T09:56:16;6.35;;;2.40;;
10811;SDS011;5458;51.496;7.334;2022-09-20T10:07:17;5.35;;;1.77;;
10811;SDS011;5458;51.496;7.334;2022-09-20T10:09:58;3.90;;;1.60;;
10811;SDS011;5458;51.496;7.334;2022-09-20T10:20:14;4.28;;;1.30;;
10811;SDS011;5458;51.496;7.334;2022-09-20T10:23:05;3.60;;;1.42;;
10811;SDS011;5458;51.496;7.334;2022-09-20T10:25:44;4.93;;;1.50;;
10811;SDS011;5458;51.496;7.334;2022-09-20T10:34:02;5.72;;;1.38;;
10811;SDS011;5458;51.496;7.334;2022-09-20T10:37:05;7.32;;;1.95;;
10811;SDS011;5458;51.496;7.334;2022-09-20T10:40:01;4.53;;;1.80;;
10811;SDS011;5458;51.496;7.334;2022-09-20T10:42:41;5.22;;;1.73;;
10811;SDS011;5458;51.496;7.334;2022-09-20T10:48:30;4.00;;;1.23;;
10811;SDS011;5458;51.496;7.334;2022-09-20T10:51:07;3.15;;;1.17;;
10811;SDS011;5458;51.496;7.334;2022-09-20T11:02:04;4.07;;;1.00;;
10811;SDS011;5458;51.496;7.334;2022-09-20T11:05:32;3.45;;;0.98;;
10811;SDS011;5458;51.496;7.334;2022-09-20T11:07:55;4.80;;;1.25;;
10811;SDS011;5458;51.496;7.334;2022-09-20T11:10:50;2.72;;;1.50;;
10811;SDS011;5458;51.496;7.334;2022-09-20T11:13:26;3.03;;;1.05;;
10811;SDS011;5458;51.496;7.334;2022-09-20T11:21:38;1.98;;;1.00;;
10811;SDS011;5458;51.496;7.334;2022-09-20T11:27:04;5.47;;;1.13;;
10811;SDS011;5458;51.496;7.334;2022-09-20T11:38:02;5.53;;;1.42;;
10811;SDS011;5458;51.496;7.334;2022-09-20T11:40:38;5.22;;;1.25;;
10811;SDS011;5458;51.496;7.334;2022-09-20T11:43:09;9.43;;;1.70;;
10811;SDS011;5458;51.496;7.334;2022-09-20T11:45:36;5.35;;;1.55;;
10811;SDS011;5458;51.496;7.334;2022-09-20T11:48:15;4.60;;;1.92;;
10811;SDS011;5458;51.496;7.334;2022-09-20T11:51:30;2.50;;;1.48;;
10811;SDS011;5458;51.496;7.334;2022-09-20T11:56:50;2.92;;;1.38;;
10811;SDS011;5458;51.496;7.334;2022-09-20T11:59:37;10.85;;;3.35;;
10811;SDS011;5458;51.496;7.334;2022-09-20T12:04:46;2.88;;;1.15;;
10811;SDS011;5458;51.496;7.334;2022-09-20T12:07:39;2.95;;;1.55;;
10811;SDS011;5458;51.496;7.334;2022-09-20T12:10:28;3.85;;;1.50;;
10811;SDS011;5458;51.496;7.334;2022-09-20T12:13:04;5.13;;;1.85;;
10811;SDS011;5458;51.496;7.334;2022-09-20T12:15:36;5.63;;;1.77;;
10811;SDS011;5458;51.496;7.334;2022-09-20T12:26:08;3.22;;;1.20;;
10811;SDS011;5458;51.496;7.334;2022-09-20T12:28:45;5.68;;;1.10;;
10811;SDS011;5458;51.496;7.334;2022-09-20T12:33:59;2.50;;;1.23;;
10811;SDS011;5458;51.496;7.334;2022-09-20T12:36:26;5.43;;;1.40;;
10811;SDS011;5458;51.496;7.334;2022-09-20T12:38:54;6.35;;;1.42;;
10811;SDS011;5458;51.496;7.334;2022-09-20T12:41:26;3.88;;;1.13;;
10811;SDS011;5458;51.496;7.334;2022-09-20T12:44:03;4.82;;;1.80;;
10811;SDS011;5458;51.496;7.334;2022-09-20T12:46:50;3.83;;;1.20;;
10811;SDS011;5458;51.496;7.334;2022-09-20T12:52:21;2.75;;;0.80;;
10811;SDS011;5458;51.496;7.334;2022-09-20T12:55:08;3.40;;;0.98;;
10811;SDS011;5458;51.496;7.334;2022-09-20T12:57:36;2.28;;;1.08;;
10811;SDS011;5458;51.496;7.334;2022-09-20T13:00:04;1.35;;;0.95;;
10811;SDS011;5458;51.496;7.334;2022-09-20T13:05:48;2.97;;;1.10;;
10811;SDS011;5458;51.496;7.334;2022-09-20T13:08:54;2.58;;;0.80;;
10811;SDS011;5458;51.496;7.334;2022-09-20T13:11:39;2.70;;;1.02;;
10811;SDS011;5458;51.496;7.334;2022-09-20T13:14:12;3.83;;;0.95;;
10811;SDS011;5458;51.496;7.334;2022-09-20T13:19:19;7.57;;;1.60;;
10811;SDS011;5458;51.496;7.334;2022-09-20T13:24:25;5.95;;;0.90;;
10811;SDS011;5458;51.496;7.334;2022-09-20T13:26:55;1.02;;;0.80;;
10811;SDS011;5458;51.496;7.334;2022-09-20T13:29:43;1.83;;;0.82;;
10811;SDS011;5458;51.496;7.334;2022-09-20T13:37:37;3.00;;;1.33;;
10811;SDS011;5458;51.496;7.334;2022-09-20T13:40:15;3.20;;;1.15;;
10811;SDS011;5458;51.496;7.334;2022-09-20T13:42:46;2.60;;;1.40;;
10811;SDS011;5458;51.496;7.334;2022-09-20T13:45:14;4.70;;;1.23;;
10811;SDS011;5458;51.496;7.334;2022-09-20T13:47:41;6.13;;;1.50;;
10811;SDS011;5458;51.496;7.334;2022-09-20T13:50:27;3.90;;;1.20;;
10811;SDS011;5458;51.496;7.334;2022-09-20T13:52:58;4.40;;;1.15;;
10811;SDS011;5458;51.496;7.334;2022-09-20T13:55:26;2.53;;;1.55;;
10811;SDS011;5458;51.496;7.334;2022-09-20T13:58:04;1.88;;;0.88;;
10811;SDS011;5458;51.496;7.334;2022-09-20T14:00:32;2.85;;;1.30;;
10811;SDS011;5458;51.496;7.334;2022-09-20T14:03:02;2.03;;;1.40;;
10811;SDS011;5458;51.496;7.334;2022-09-20T14:05:28;4.10;;;1.27;;
10811;SDS011;5458;51.496;7.334;2022-09-20T14:07:55;1.83;;;1.05;;
10811;SDS011;5458;51.496;7.334;2022-09-20T14:12:58;1.48;;;1.00;;
10811;SDS011;5458;51.496;7.334;2022-09-20T14:15:27;2.45;;;0.90;;
10811;SDS011;5458;51.496;7.334;2022-09-20T14:17:59;4.32;;;1.00;;
10811;SDS011;5458;51.496;7.334;2022-09-20T14:20:28;1.92;;;1.17;;
10811;SDS011;5458;51.496;7.334;2022-09-20T14:22:54;3.70;;;1.55;;
10811;SDS011;5458;51.496;7.334;2022-09-20T14:25:21;4.68;;;1.30;;
10811;SDS011;5458;51.496;7.334;2022-09-20T14:28:04;1.30;;;0.90;;
10811;SDS011;5458;51.496;7.334;2022-09-20T14:30:33;3.45;;;1.15;;
10811;SDS011;5458;51.496;7.334;2022-09-20T14:33:04;2.47;;;1.40;;
10811;SDS011;5458;51.496;7.334;2022-09-20T14:35:31;1.58;;;1.27;;
10811;SDS011;5458;51.496;7.334;2022-09-20T14:37:58;4.28;;;1.83;;
10811;SDS011;5458;51.496;7.334;2022-09-20T14:43:00;4.00;;;1.10;;
10811;SDS011;5458;51.496;7.334;2022-09-20T14:45:29;1.25;;;0.98;;
10811;SDS011;5458;51.496;7.334;2022-09-20T14:50:35;3.63;;;1.52;;
10811;SDS011;5458;51.496;7.334;2022-09-20T14:55:35;3.80;;;1.15;;
10811;SDS011;5458;51.496;7.334;2022-09-20T14:58:05;5.28;;;1.48;;
10811;SDS011;5458;51.496;7.334;2022-09-20T15:00:45;3.15;;;1.10;;
10811;SDS011;5458;51.496;7.334;2022-09-20T15:03:29;2.03;;;1.10;;
10811;SDS011;5458;51.496;7.334;2022-09-20T15:06:02;3.95;;;1.40;;
10811;SDS011;5458;51.496;7.334;2022-09-20T15:08:28;4.40;;;0.80;;
10811;SDS011;5458;51.496;7.334;2022-09-20T15:10:54;2.45;;;1.30;;
10811;SDS011;5458;51.496;7.334;2022-09-20T15:13:20;1.58;;;1.05;;
10811;SDS011;5458;51.496;7.334;2022-09-20T15:15:47;3.72;;;1.10;;
10811;SDS011;5458;51.496;7.334;2022-09-20T15:18:48;2.38;;;1.35;;
10811;SDS011;5458;51.496;7.334;2022-09-20T15:21:07;3.97;;;0.90;;
10811;SDS011;5458;51.496;7.334;2022-09-20T15:23:35;3.80;;;1.08;;
10811;SDS011;5458;51.496;7.334;2022-09-20T15:26:02;1.92;;;1.25;;
10811;SDS011;5458;51.496;7.334;2022-09-20T15:28:28;1.83;;;1.08;;
10811;SDS011;5458;51.496;7.334;2022-09-20T15:30:56;2.85;;;1.20;;
10811;SDS011;5458;51.496;7.334;2022-09-20T15:33:22;2.70;;;0.98;;
10811;SDS011;5458;51.496;7.334;2022-09-20T15:35:48;2.80;;;0.90;;
10811;SDS011;5458;51.496;7.334;2022-09-20T15:38:17;4.20;;;1.20;;
10811;SDS011;5458;51.496;7.334;2022-09-20T15:40:44;4.38;;;1.42;;
10811;SDS011;5458;51.496;7.334;2022-09-20T15:43:12;1.83;;;0.75;;
10811;SDS011;5458;51.496;7.334;2022-09-20T15:45:47;2.97;;;1.55;;
10811;SDS011;5458;51.496;7.334;2022-09-20T15:48:27;2.90;;;1.60;;
10811;SDS011;5458;51.496;7.334;2022-09-20T15:53:25;2.42;;;1.23;;
10811;SDS011;5458;51.496;7.334;2022-09-20T15:55:56;1.42;;;0.90;;
10811;SDS011;5458;51.496;7.334;2022-09-20T15:58:25;2.47;;;1.15;;
10811;SDS011;5458;51.496;7.334;2022-09-20T16:00:51;4.10;;;1.38;;
10811;SDS011;5458;51.496;7.334;2022-09-20T16:03:16;6.88;;;1.10;;
10811;SDS011;5458;51.496;7.334;2022-09-20T16:05:42;3.08;;;1.40;;
10811;SDS011;5458;51.496;7.334;2022-09-20T16:08:07;2.58;;;1.13;;
10811;SDS011;5458;51.496;7.334;2022-09-20T16:10:33;3.25;;;1.13;;
10811;SDS011;5458;51.496;7.334;2022-09-20T16:12:59;1.67;;;1.00;;
10811;SDS011;5458;51.496;7.334;2022-09-20T16:15:24;3.28;;;0.90;;
10811;SDS011;5458;51.496;7.334;2022-09-20T16:17:50;1.85;;;0.90;;
10811;SDS011;5458;51.496;7.334;2022-09-20T16:20:34;2.85;;;0.95;;
10811;SDS011;5458;51.496;7.334;2022-09-20T16:22:59;1.95;;;1.00;;
10811;SDS011;5458;51.496;7.334;2022-09-20T16:25:25;2.30;;;1.20;;
10811;SDS011;5458;51.496;7.334;2022-09-20T16:27:51;2.35;;;1.45;;
10811;SDS011;5458;51.496;7.334;2022-09-20T16:30:17;4.15;;;1.48;;
10811;SDS011;5458;51.496;7.334;2022-09-20T16:32:44;4.88;;;1.60;;
10811;SDS011;5458;51.496;7.334;2022-09-20T16:35:10;3.22;;;1.50;;
10811;SDS011;5458;51.496;7.334;2022-09-20T16:37:35;4.90;;;1.73;;
10811;SDS011;5458;51.496;7.334;2022-09-20T16:40:03;4.00;;;2.00;;
10811;SDS011;5458;51.496;7.334;2022-09-20T16:42:29;3.22;;;1.38;;
10811;SDS011;5458;51.496;7.334;2022-09-20T16:44:55;3.20;;;1.10;;
10811;SDS011;5458;51.496;7.334;2022-09-20T16:47:21;3.67;;;1.10;;
10811;SDS011;5458;51.496;7.334;2022-09-20T16:49:49;3.58;;;1.40;;
10811;SDS011;5458;51.496;7.334;2022-09-20T16:52:15;5.03;;;1.30;;
10811;SDS011;5458;51.496;7.334;2022-09-20T16:54:41;1.88;;;0.90;;
10811;SDS011;5458;51.496;7.334;2022-09-20T16:57:08;4.63;;;1.25;;
10811;SDS011;5458;51.496;7.334;2022-09-20T16:59:33;2.80;;;1.10;;
10811;SDS011;5458;51.496;7.334;2022-09-20T17:01:59;2.08;;;0.85;;
10811;SDS011;5458;51.496;7.334;2022-09-20T17:04:24;4.95;;;1.13;;
10811;SDS011;5458;51.496;7.334;2022-09-20T17:06:50;4.35;;;1.20;;
10811;SDS011;5458;51.496;7.334;2022-09-20T17:09:16;2.80;;;1.10;;
10811;SDS011;5458;51.496;7.334;2022-09-20T17:11:43;3.13;;;0.80;;
10811;SDS011;5458;51.496;7.334;2022-09-20T17:14:12;1.70;;;1.08;;
10811;SDS011;5458;51.496;7.334;2022-09-20T17:16:40;1.95;;;0.80;;
10811;SDS011;5458;51.496;7.334;2022-09-20T17:19:07;3.10;;;0.70;;
10811;SDS011;5458;51.496;7.334;2022-09-20T17:21:36;2.35;;;0.90;;
10811;SDS011;5458;51.496;7.334;2022-09-20T17:24:06;1.13;;;0.88;;
10811;SDS011;5458;51.496;7.334;2022-09-20T17:26:33;2.47;;;1.13;;
10811;SDS011;5458;51.496;7.334;2022-09-20T17:29:04;5.50;;;1.38;;
10811;SDS011;5458;51.496;7.334;2022-09-20T17:31:32;2.35;;;0.90;;
10811;SDS011;5458;51.496;7.334;2022-09-20T17:34:00;1.73;;;1.05;;
10811;SDS011;5458;51.496;7.334;2022-09-20T17:36:27;2.78;;;0.90;;
10811;SDS011;5458;51.496;7.334;2022-09-20T17:38:55;2.83;;;1.02;;
10811;SDS011;5458;51.496;7.334;2022-09-20T17:41:22;1.40;;;1.00;;
10811;SDS011;5458;51.496;7.334;2022-09-20T17:43:53;2.38;;;1.00;;
10811;SDS011;5458;51.496;7.334;2022-09-20T17:46:23;2.20;;;1.02;;
10811;SDS011;5458;51.496;7.334;2022-09-20T17:49:00;4.85;;;1.42;;
10811;SDS011;5458;51.496;7.334;2022-09-20T17:51:28;3.40;;;1.30;;
10811;SDS011;5458;51.496;7.334;2022-09-20T17:53:55;2.22;;;1.17;;
10811;SDS011;5458;51.496;7.334;2022-09-20T17:56:21;3.35;;;1.50;;
10811;SDS011;5458;51.496;7.334;2022-09-20T17:58:48;2.67;;;1.40;;
10811;SDS011;5458;51.496;7.334;2022-09-20T18:01:16;1.40;;;1.15;;
10811;SDS011;5458;51.496;7.334;2022-09-20T18:03:44;5.95;;;2.33;;
10811;SDS011;5458;51.496;7.334;2022-09-20T18:06:12;3.60;;;1.77;;
10811;SDS011;5458;51.496;7.334;2022-09-20T18:08:49;3.78;;;2.00;;
10811;SDS011;5458;51.496;7.334;2022-09-20T18:11:17;5.10;;;1.90;;
10811;SDS011;5458;51.496;7.334;2022-09-20T18:13:44;4.20;;;1.88;;
10811;SDS011;5458;51.496;7.334;2022-09-20T18:16:10;2.45;;;1.95;;
10811;SDS011;5458;51.496;7.334;2022-09-20T18:18:38;5.72;;;2.55;;
10811;SDS011;5458;51.496;7.334;2022-09-20T18:21:08;2.53;;;1.50;;
10811;SDS011;5458;51.496;7.334;2022-09-20T18:23:46;5.20;;;1.52;;
10811;SDS011;5458;51.496;7.334;2022-09-20T18:26:14;5.60;;;1.42;;
10811;SDS011;5458;51.496;7.334;2022-09-20T18:28:54;2.55;;;1.25;;
10811;SDS011;5458;51.496;7.334;2022-09-20T18:31:21;2.70;;;1.58;;
10811;SDS011;5458;51.496;7.334;2022-09-20T18:33:50;2.53;;;1.55;;
10811;SDS011;5458;51.496;7.334;2022-09-20T18:36:16;3.08;;;1.67;;
10811;SDS011;5458;51.496;7.334;2022-09-20T18:38:42;2.85;;;1.85;;
10811;SDS011;5458;51.496;7.334;2022-09-20T18:41:09;4.50;;;1.67;;
10811;SDS011;5458;51.496;7.334;2022-09-20T18:43:38;4.38;;;1.40;;
10811;SDS011;5458;51.496;7.334;2022-09-20T18:46:06;4.13;;;1.67;;
10811;SDS011;5458;51.496;7.334;2022-09-20T18:48:35;2.65;;;1.63;;
10811;SDS011;5458;51.496;7.334;2022-09-20T18:51:03;1.85;;;1.40;;
10811;SDS011;5458;51.496;7.334;2022-09-20T18:53:31;4.57;;;1.92;;
10811;SDS011;5458;51.496;7.334;2022-09-20T18:58:31;5.10;;;3.15;;
10811;SDS011;5458;51.496;7.334;2022-09-20T19:01:01;8.50;;;2.95;;
10811;SDS011;5458;51.496;7.334;2022-09-20T19:06:40;10.13;;;4.35;;
10811;SDS011;5458;51.496;7.334;2022-09-20T19:09:23;9.02;;;4.35;;
10811;SDS011;5458;51.496;7.334;2022-09-20T19:11:56;6.72;;;4.40;;
10811;SDS011;5458;51.496;7.334;2022-09-20T19:16:58;7.03;;;4.70;;
10811;SDS011;5458;51.496;7.334;2022-09-20T19:25:15;5.60;;;3.72;;
10811;SDS011;5458;51.496;7.334;2022-09-20T19:27:48;8.32;;;3.83;;
10811;SDS011;5458;51.496;7.334;2022-09-20T19:30:15;7.43;;;4.40;;
10811;SDS011;5458;51.496;7.334;2022-09-20T19:32:42;4.93;;;4.38;;
10811;SDS011;5458;51.496;7.334;2022-09-20T19:35:13;6.35;;;4.03;;
10811;SDS011;5458;51.496;7.334;2022-09-20T19:41:15;6.65;;;5.00;;
10811;SDS011;5458;51.496;7.334;2022-09-20T19:52:16;7.47;;;4.07;;
10811;SDS011;5458;51.496;7.334;2022-09-20T19:54:42;7.25;;;4.53;;
10811;SDS011;5458;51.496;7.334;2022-09-20T19:57:11;7.68;;;4.32;;
10811;SDS011;5458;51.496;7.334;2022-09-20T19:59:44;5.00;;;4.00;;
10811;SDS011;5458;51.496;7.334;2022-09-20T20:02:10;5.50;;;4.32;;
10811;SDS011;5458;51.496;7.334;2022-09-20T20:04:36;5.85;;;5.20;;
10811;SDS011;5458;51.496;7.334;2022-09-20T20:07:19;8.52;;;5.47;;
10811;SDS011;5458;51.496;7.334;2022-09-20T20:10:02;5.00;;;3.78;;
10811;SDS011;5458;51.496;7.334;2022-09-20T20:21:03;11.27;;;6.78;;
10811;SDS011;5458;51.496;7.334;2022-09-20T20:23:46;17.50;;;7.40;;
10811;SDS011;5458;51.496;7.334;2022-09-20T20:26:24;14.63;;;7.82;;
10811;SDS011;5458;51.496;7.334;2022-09-20T20:28:50;12.85;;;7.85;;
10811;SDS011;5458;51.496;7.334;2022-09-20T20:31:17;13.52;;;7.72;;
10811;SDS011;5458;51.496;7.334;2022-09-20T20:33:43;10.95;;;7.10;;
10811;SDS011;5458;51.496;7.334;2022-09-20T20:36:09;12.38;;;7.97;;
10811;SDS011;5458;51.496;7.334;2022-09-20T20:38:36;13.90;;;8.35;;
10811;SDS011;5458;51.496;7.334;2022-09-20T20:41:08;14.02;;;7.88;;
10811;SDS011;5458;51.496;7.334;2022-09-20T20:43:36;13.90;;;7.88;;
10811;SDS011;5458;51.496;7.334;2022-09-20T20:46:04;11.05;;;8.38;;
10811;SDS011;5458;51.496;7.334;2022-09-20T20:48:31;23.50;;;8.18;;
10811;SDS011;5458;51.496;7.334;2022-09-20T20:53:28;11.82;;;6.55;;
10811;SDS011;5458;51.496;7.334;2022-09-20T20:56:01;11.30;;;7.18;;
10811;SDS011;5458;51.496;7.334;2022-09-20T20:58:30;9.70;;;6.55;;
10811;SDS011;5458;51.496;7.334;2022-09-20T21:01:09;11.75;;;6.60;;
10811;SDS011;5458;51.496;7.334;2022-09-20T21:03:37;11.35;;;6.18;;
10811;SDS011;5458;51.496;7.334;2022-09-20T21:06:07;11.38;;;7.03;;
10811;SDS011;5458;51.496;7.334;2022-09-20T21:08:35;10.98;;;7.30;;
10811;SDS011;5458;51.496;7.334;2022-09-20T21:11:05;9.60;;;6.45;;
10811;SDS011;5458;51.496;7.334;2022-09-20T21:13:33;13.95;;;5.90;;
10811;SDS011;5458;51.496;7.334;2022-09-20T21:16:06;9.73;;;6.78;;
10811;SDS011;5458;51.496;7.334;2022-09-20T21:18:38;11.90;;;6.28;;
10811;SDS011;5458;51.496;7.334;2022-09-20T21:21:11;8.95;;;5.75;;
10811;SDS011;5458;51.496;7.334;2022-09-20T21:23:37;10.00;;;5.78;;